South Daytona, FL

10:57 AM EDT on September 01, 2015 (GMT -0400)
Daytona Beach International | | Change Station
CLOSE
Current Station
Airport
Location: Daytona Beach,
Elevation: 33 ft
Nearby Weather Stations

Elev 33 ft 29.18 °N, 81.06 °W | Updated 4 minutes ago

Partly Cloudy
Partly Cloudy
84 °F
Feels Like 93 °F
N
6
Wind Variable Wind from SSW

Today
High -- | Low -- °F
--% Chance of Precip.
Yesterday
High -- | Low -- °F
Precip. -- in
7:01 AM 7:46 PM
Waning Gibbous, 88% visible
Pressure 30.10 in
Visibility 10.0 miles
Clouds Scattered Clouds 1500 ft
Scattered Clouds 15000 ft
Scattered Clouds 25000 ft
Heat Index 93 °F
Dew Point 76 °F
Humidity 76%
Rainfall 0.00 in
Snow Depth Not available.
UV 7 out of 12
Pollen 7.50 out of 12
Air Quality Not available.
Flu Activity Not available.
METAR KDAB 011453Z 21005KT 10SM SCT015 SCT150 SCT250 29/24 A3010 RMK AO2 SLP192 T02890244 52005
Pressure 30.10 in
Visibility 10.0 miles
Clouds Scattered Clouds 1500 ft
Scattered Clouds 15000 ft
Scattered Clouds 25000 ft
Heat Index 93 °F
Dew Point 76 °F
Humidity 76%
Rainfall 0.00 in
Snow Depth Not available.
UV 7 out of 12
Pollen 7.50 out of 12
Air Quality Not available.
Flu Activity Not available.
METAR KDAB 011453Z 21005KT 10SM SCT015 SCT150 SCT250 29/24 A3010 RMK AO2 SLP192 T02890244 52005

10-Day Weather Forecast

×

Almanac

Astronomy

Sep. 01, 2015 Rise Set
Actual Time
Civil Twilight
Nautical Twilight
Astronomical Twilight
Moon
Length of Visible Light
Length of Day
Tomorrow will be .
, % of the Moon is Illuminated

Today's Extremes

State Highs State Lows

Community

WunderPhotos

Upload Photos

1,851,513 photos uploaded!

WunderBlogs® & News

Nearby

Air Quality

  Air Quality AQ Index Pollutant
Not available.

Snow Depth

Station Depth Elevation

Earthquake Activity

City Distance Mag. Time & Date
Minimum magnitude displayed is 2.5.

Coastal Water Temperatures

Place Temperature

Stations

Nearby Weather Stations

Station Location Temp. Windchill Dew Point Humidity Wind Precip. Elev Updated Type